Time;durP1;ratioP1;P1;durP2;ratioP2;P2;SDS_P1;SDS_P2;PMS_P1;PMS_P2;Temp;Humidity;BMP_temperature;BMP_pressure;BME280_temperature;BME280_humidity;BME280_pressure;Samples;Min_cycle;Max_cycle;Signal;HPM_P1;HPM_P2
2022/12/25 00:00:21;;;;;;;21.93;7.37;;;4.60;99.90;;;;;;5087805;28;20198;-83
2022/12/25 00:02:48;;;;;;;22.27;7.40;;;5.00;99.90;;;;;;5093952;28;20230;-82
2022/12/25 00:05:15;;;;;;;18.87;7.00;;;5.00;99.90;;;;;;5099691;28;20288;-82
2022/12/25 00:07:42;;;;;;;19.13;7.77;;;4.90;99.90;;;;;;5109222;28;20333;-82
2022/12/25 00:10:10;;;;;;;15.40;6.50;;;5.20;99.90;;;;;;5091371;28;20199;-82
2022/12/25 00:12:37;;;;;;;17.10;6.70;;;5.10;99.90;;;;;;5095659;28;20251;-82
2022/12/25 00:15:05;;;;;;;18.13;7.60;;;5.20;99.90;;;;;;5097919;28;20201;-83
2022/12/25 00:17:31;;;;;;;22.83;7.33;;;5.20;99.90;;;;;;5091550;28;20233;-83
2022/12/25 00:19:58;;;;;;;21.73;7.50;;;5.10;99.90;;;;;;5079076;28;20214;-83
2022/12/25 00:22:25;;;;;;;20.07;7.10;;;5.20;99.90;;;;;;5097272;28;20222;-82
2022/12/25 00:24:52;;;;;;;19.87;8.27;;;5.10;99.90;;;;;;5094857;28;20216;-83
2022/12/25 00:27:20;;;;;;;17.53;7.43;;;5.00;99.90;;;;;;5098057;28;20209;-82
2022/12/25 00:29:46;;;;;;;17.30;6.53;;;4.80;99.90;;;;;;5097957;28;20556;-83
2022/12/25 00:32:13;;;;;;;17.07;7.43;;;4.70;99.90;;;;;;5097391;28;20574;-82
2022/12/25 00:34:40;;;;;;;18.77;7.00;;;4.80;99.90;;;;;;5093608;28;20200;-83
2022/12/25 00:37:07;;;;;;;15.27;6.87;;;4.60;99.90;;;;;;5084537;28;20208;-82
2022/12/25 00:39:34;;;;;;;17.80;7.20;;;4.60;99.90;;;;;;5078982;28;20240;-83
2022/12/25 00:42:18;;;;;;;18.53;6.83;;;4.40;99.90;;;;;;5087487;28;20225;-83
2022/12/25 00:44:47;;;;;;;16.53;6.83;;;4.40;99.90;;;;;;5092668;28;20193;-82
2022/12/25 00:47:15;;;;;;;19.87;7.57;;;4.90;99.90;;;;;;5094019;28;20304;-82
2022/12/25 00:49:41;;;;;;;20.87;8.83;;;4.60;99.90;;;;;;5085708;28;20798;-82
2022/12/25 00:52:08;;;;;;;14.23;6.90;;;4.60;99.90;;;;;;5085665;28;20209;-83
2022/12/25 00:54:35;;;;;;;20.37;7.50;;;4.60;99.90;;;;;;5102850;28;20200;-82
2022/12/25 00:57:02;;;;;;;17.23;6.53;;;4.60;99.90;;;;;;5099649;28;20731;-83
2022/12/25 00:59:32;;;;;;;15.83;6.97;;;4.60;99.90;;;;;;5110426;28;20197;-83
2022/12/25 01:02:22;;;;;;;19.10;7.13;;;4.50;99.90;;;;;;5105829;28;20198;-83
2022/12/25 01:04:47;;;;;;;18.27;7.67;;;4.60;99.90;;;;;;5103053;28;20254;-83
2022/12/25 01:07:15;;;;;;;17.23;6.70;;;4.70;99.90;;;;;;5098453;28;20267;-83
2022/12/25 01:12:26;;;;;;;17.80;7.40;;;4.60;99.90;;;;;;5095407;28;20286;-82
2022/12/25 01:14:53;;;;;;;16.93;6.87;;;4.50;99.90;;;;;;5098004;28;20544;-83
2022/12/25 01:17:22;;;;;;;15.93;7.00;;;4.50;99.90;;;;;;5087286;28;20233;-83
2022/12/25 01:19:48;;;;;;;15.10;6.33;;;4.30;99.90;;;;;;5078435;28;20213;-82
2022/12/25 01:22:16;;;;;;;19.00;6.63;;;4.30;99.90;;;;;;5077390;28;20594;-83
2022/12/25 01:24:42;;;;;;;17.63;6.47;;;4.30;99.90;;;;;;5086023;28;20636;-83
2022/12/25 01:27:09;;;;;;;20.83;7.93;;;4.20;99.90;;;;;;5088950;28;20214;-83
2022/12/25 01:29:37;;;;;;;41.23;6.70;;;4.00;99.90;;;;;;5077651;28;20206;-83
2022/12/25 01:32:04;;;;;;;17.33;7.07;;;3.90;99.90;;;;;;5076102;28;20210;-83
2022/12/25 01:34:33;;;;;;;15.00;6.17;;;3.80;99.90;;;;;;5097306;28;20289;-83
2022/12/25 01:36:59;;;;;;;17.83;6.57;;;3.80;99.90;;;;;;5096539;28;20203;-83
2022/12/25 01:39:26;;;;;;;18.87;6.90;;;4.00;99.90;;;;;;5081426;28;20214;-83
2022/12/25 01:41:53;;;;;;;21.73;6.57;;;4.20;99.90;;;;;;5077235;28;20198;-83
2022/12/25 01:44:57;;;;;;;18.40;5.90;;;3.90;99.90;;;;;;5093729;28;20230;-84
2022/12/25 01:47:24;;;;;;;19.97;7.00;;;4.10;99.90;;;;;;5093842;28;20605;-83
2022/12/25 01:49:52;;;;;;;16.57;6.20;;;4.40;99.90;;;;;;5087325;28;20208;-84
2022/12/25 01:52:23;;;;;;;18.43;5.90;;;4.20;99.90;;;;;;5096205;28;20198;-83
2022/12/25 01:54:53;;;;;;;18.47;6.10;;;4.10;99.90;;;;;;5097454;28;20190;-83
2022/12/25 01:57:23;;;;;;;18.17;6.33;;;4.30;99.90;;;;;;5088567;28;20238;-84
2022/12/25 01:59:53;;;;;;;15.90;6.03;;;4.50;99.90;;;;;;5090815;28;20566;-84
2022/12/25 02:02:21;;;;;;;11.13;5.93;;;4.20;99.90;;;;;;5095102;28;20206;-83
2022/12/25 02:04:53;;;;;;;12.47;5.37;;;4.00;99.90;;;;;;5093699;28;20198;-84
2022/12/25 02:07:23;;;;;;;11.17;5.57;;;4.00;99.90;;;;;;5084021;28;20687;-86
2022/12/25 02:09:50;;;;;;;12.07;5.27;;;3.90;99.90;;;;;;5080361;28;20208;-84
2022/12/25 02:12:21;;;;;;;15.53;5.10;;;3.90;99.90;;;;;;5084148;28;20191;-84
2022/12/25 02:14:49;;;;;;;15.40;5.90;;;3.90;99.90;;;;;;5091648;28;20306;-85
2022/12/25 02:17:23;;;;;;;17.10;5.07;;;3.80;99.90;;;;;;5081455;28;20226;-85
2022/12/25 02:20:16;;;;;;;10.57;4.67;;;3.90;99.90;;;;;;5091048;28;20198;-85
2022/12/25 02:22:56;;;;;;;12.63;4.47;;;4.00;99.90;;;;;;5090955;28;20226;-85
2022/12/25 02:25:37;;;;;;;15.83;5.33;;;4.00;99.90;;;;;;5089900;28;20202;-84
2022/12/25 02:28:16;;;;;;;17.77;5.47;;;4.40;99.90;;;;;;5091395;28;20221;-84
2022/12/25 02:30:46;;;;;;;14.07;5.87;;;4.50;99.90;;;;;;5084995;28;20206;-84
2022/12/25 02:36:07;;;;;;;15.47;4.77;;;4.70;99.90;;;;;;5087262;28;20225;-85
2022/12/25 02:39:56;;;;;;;12.53;5.50;;;4.70;99.90;;;;;;5090135;28;20229;-85
2022/12/25 02:41:28;;;;;;;15.47;6.23;;;4.90;99.90;;;;;;5092460;28;20696;-85
2022/12/25 03:06:43;;;;;;;12.10;5.23;;;5.10;99.90;;;;;;5077323;28;20208;-84
2022/12/25 03:12:05;;;;;;;16.30;5.37;;;5.10;99.90;;;;;;5090000;28;20332;-84
2022/12/25 03:17:20;;;;;;;12.10;5.03;;;5.00;99.90;;;;;;5071704;28;20297;-83
2022/12/25 03:28:04;;;;;;;16.67;9.13;;;4.60;99.90;;;;;;5094088;28;20227;-83
2022/12/25 03:33:35;;;;;;;17.03;6.87;;;4.80;99.90;;;;;;5091797;28;20204;-84
2022/12/25 03:36:07;;;;;;;19.13;6.00;;;4.70;99.90;;;;;;5087536;28;20210;-84
2022/12/25 04:36:50;;;;;;;14.33;5.33;;;4.90;99.90;;;;;;5090040;28;20580;-84
2022/12/25 04:39:18;;;;;;;15.30;5.03;;;5.20;99.90;;;;;;5091029;28;20212;-84
2022/12/25 04:41:45;;;;;;;13.10;5.00;;;5.10;99.90;;;;;;5088296;28;20201;-84
2022/12/25 04:44:12;;;;;;;14.00;5.07;;;5.50;99.90;;;;;;5107369;28;20701;-84
2022/12/25 04:46:39;;;;;;;15.33;5.97;;;5.60;99.90;;;;;;5084789;28;20675;-84
2022/12/25 04:49:05;;;;;;;16.80;5.23;;;5.80;99.90;;;;;;5088779;28;20269;-84
2022/12/25 04:51:32;;;;;;;14.70;5.10;;;6.00;99.90;;;;;;5093118;28;20201;-84
2022/12/25 04:53:59;;;;;;;13.03;5.33;;;5.90;99.90;;;;;;5085468;28;20199;-84
2022/12/25 04:56:27;;;;;;;16.20;5.33;;;6.10;99.90;;;;;;5088223;28;20202;-84
2022/12/25 04:58:54;;;;;;;16.67;5.27;;;6.20;99.90;;;;;;5093993;28;20225;-84
2022/12/25 05:01:21;;;;;;;16.83;6.03;;;6.20;99.90;;;;;;5097340;28;20201;-84
2022/12/25 05:03:48;;;;;;;15.83;5.83;;;6.20;99.90;;;;;;5090307;28;20214;-84
2022/12/25 05:06:14;;;;;;;16.77;6.00;;;6.60;99.90;;;;;;5095002;28;20196;-84
2022/12/25 05:08:41;;;;;;;18.33;5.37;;;6.50;99.90;;;;;;5095862;28;20733;-84
2022/12/25 05:11:10;;;;;;;14.77;5.27;;;6.60;99.90;;;;;;5097977;28;20285;-84
2022/12/25 05:13:39;;;;;;;11.57;5.53;;;6.70;99.90;;;;;;5094715;28;20248;-83
2022/12/25 05:16:08;;;;;;;10.87;4.90;;;6.80;99.90;;;;;;5095106;28;20197;-83
2022/12/25 05:18:35;;;;;;;15.27;5.70;;;6.80;99.90;;;;;;5095386;28;20306;-83
2022/12/25 05:21:03;;;;;;;17.63;5.97;;;6.90;99.90;;;;;;5095114;28;20208;-83
2022/12/25 05:23:30;;;;;;;19.13;5.33;;;7.10;99.90;;;;;;5095544;28;20233;-83
2022/12/25 05:25:57;;;;;;;20.50;6.13;;;7.30;99.90;;;;;;5083733;28;20197;-83
2022/12/25 05:28:24;;;;;;;15.47;6.37;;;7.60;99.90;;;;;;5096859;28;20232;-83
2022/12/25 05:30:55;;;;;;;22.40;6.87;;;7.40;99.90;;;;;;5094242;28;20638;-83
2022/12/25 05:33:22;;;;;;;20.17;5.87;;;7.40;99.90;;;;;;5095945;28;20204;-83
2022/12/25 05:35:49;;;;;;;13.67;5.90;;;7.60;99.90;;;;;;5096193;28;20204;-83
2022/12/25 05:38:16;;;;;;;19.40;6.20;;;7.60;99.90;;;;;;5096347;28;20223;-83
2022/12/25 05:40:42;;;;;;;21.67;5.83;;;7.70;99.90;;;;;;5096366;28;20203;-82
2022/12/25 05:43:09;;;;;;;16.87;6.67;;;7.70;99.90;;;;;;5097046;28;20217;-83
2022/12/25 05:45:36;;;;;;;13.37;6.07;;;7.70;99.90;;;;;;5096178;28;20194;-83
2022/12/25 05:48:05;;;;;;;17.60;5.90;;;7.80;99.90;;;;;;5094115;28;20309;-83
2022/12/25 05:50:31;;;;;;;17.20;5.53;;;7.70;99.90;;;;;;5096464;28;20214;-83
2022/12/25 05:52:58;;;;;;;16.27;5.70;;;7.90;99.90;;;;;;5096466;28;20213;-83
2022/12/25 05:55:25;;;;;;;14.63;5.07;;;7.60;99.90;;;;;;5090433;28;20197;-84
2022/12/25 05:57:51;;;;;;;11.97;4.53;;;7.60;99.90;;;;;;5095024;28;20228;-84
2022/12/25 06:00:19;;;;;;;18.23;5.00;;;7.70;99.90;;;;;;5092368;28;20202;-84
2022/12/25 06:02:46;;;;;;;12.97;4.93;;;7.70;99.90;;;;;;5095682;28;20202;-84
2022/12/25 06:05:14;;;;;;;12.30;4.80;;;7.70;99.90;;;;;;5096323;28;20232;-84
2022/12/25 06:07:41;;;;;;;9.90;5.23;;;7.70;99.90;;;;;;5094753;28;20228;-83
2022/12/25 06:10:09;;;;;;;11.30;4.90;;;7.70;99.90;;;;;;5094508;28;20205;-83
2022/12/25 06:12:35;;;;;;;11.57;4.20;;;7.60;99.90;;;;;;5089445;28;20197;-83
2022/12/25 06:15:02;;;;;;;10.00;5.00;;;7.70;99.90;;;;;;5096130;28;20638;-83
2022/12/25 06:17:29;;;;;;;14.53;4.80;;;7.60;99.90;;;;;;5094476;28;20252;-83
2022/12/25 06:19:56;;;;;;;13.13;4.43;;;7.80;99.90;;;;;;5095019;28;20623;-84
2022/12/25 06:22:29;;;;;;;12.77;4.37;;;7.80;99.90;;;;;;5089103;28;20544;-84
2022/12/25 06:24:55;;;;;;;12.40;4.40;;;7.80;99.90;;;;;;5095688;28;20287;-83
2022/12/25 06:27:22;;;;;;;12.50;4.80;;;7.60;99.90;;;;;;5090660;28;20701;-83
2022/12/25 06:29:49;;;;;;;12.60;4.70;;;7.60;99.90;;;;;;5093251;28;20658;-83
2022/12/25 06:32:16;;;;;;;14.87;4.50;;;7.70;99.90;;;;;;5094404;28;20599;-83
2022/12/25 06:34:43;;;;;;;12.87;4.70;;;7.80;99.90;;;;;;5094925;28;20233;-83
2022/12/25 06:37:09;;;;;;;12.40;4.70;;;7.80;99.90;;;;;;5092607;28;20210;-83
2022/12/25 06:39:37;;;;;;;14.23;4.43;;;7.70;99.90;;;;;;5094047;28;20534;-83
2022/12/25 06:42:04;;;;;;;13.17;4.20;;;7.90;99.90;;;;;;5093053;28;20204;-84
2022/12/25 06:44:32;;;;;;;10.33;4.50;;;8.20;99.90;;;;;;5095012;28;20221;-83
2022/12/25 06:46:59;;;;;;;11.57;4.33;;;8.20;99.90;;;;;;5091673;28;20209;-83
2022/12/25 06:49:26;;;;;;;12.60;5.13;;;8.30;99.90;;;;;;5083664;28;20201;-83
2022/12/25 06:51:53;;;;;;;11.30;4.40;;;8.20;99.90;;;;;;5094045;28;20564;-83
2022/12/25 06:54:19;;;;;;;12.27;4.57;;;8.20;99.90;;;;;;5091484;28;20193;-83
2022/12/25 06:56:49;;;;;;;11.33;4.50;;;8.20;99.90;;;;;;5093117;28;20223;-83
2022/12/25 06:59:16;;;;;;;11.90;4.50;;;8.10;99.90;;;;;;5092783;28;20238;-83
2022/12/25 07:01:46;;;;;;;13.10;4.60;;;8.00;99.90;;;;;;5088438;28;20197;-84
2022/12/25 07:04:23;;;;;;;13.73;6.17;;;7.90;99.90;;;;;;5094336;28;20224;-84
2022/12/25 07:06:50;;;;;;;9.90;4.27;;;7.80;99.90;;;;;;5101622;28;20198;-84
2022/12/25 07:09:17;;;;;;;13.00;4.93;;;7.40;99.90;;;;;;5087550;28;20261;-84
2022/12/25 07:11:44;;;;;;;9.53;3.63;;;7.40;99.90;;;;;;5092097;28;20202;-84
2022/12/25 07:14:17;;;;;;;14.83;4.20;;;7.30;99.90;;;;;;5087842;28;20190;-84
2022/12/25 07:16:44;;;;;;;9.20;4.03;;;7.40;99.90;;;;;;5098053;28;20221;-84
2022/12/25 07:19:10;;;;;;;12.60;4.37;;;7.50;99.90;;;;;;5091761;28;20704;-84
2022/12/25 07:21:37;;;;;;;9.17;4.53;;;7.50;99.90;;;;;;5089613;28;20685;-84
2022/12/25 07:24:05;;;;;;;12.90;4.43;;;7.60;99.90;;;;;;5095045;28;20218;-84
2022/12/25 07:26:31;;;;;;;11.37;4.60;;;7.60;99.90;;;;;;5094561;28;20198;-84
2022/12/25 07:28:58;;;;;;;17.40;5.63;;;7.60;99.90;;;;;;5089863;28;20249;-84
2022/12/25 07:31:26;;;;;;;13.43;4.50;;;7.60;99.90;;;;;;5088949;28;20205;-84
2022/12/25 07:33:54;;;;;;;15.07;4.47;;;7.60;99.90;;;;;;5084298;28;20194;-84
2022/12/25 07:36:21;;;;;;;12.47;4.50;;;7.80;99.90;;;;;;5091672;28;20624;-84
2022/12/25 07:38:49;;;;;;;16.43;4.97;;;7.50;99.90;;;;;;5082789;28;20226;-84
2022/12/25 07:41:16;;;;;;;13.77;4.53;;;7.50;99.90;;;;;;5083275;28;20206;-84
2022/12/25 07:43:43;;;;;;;11.40;3.60;;;7.50;99.90;;;;;;5082058;28;20202;-83
2022/12/25 07:46:10;;;;;;;14.27;4.37;;;7.60;99.90;;;;;;5079556;28;20673;-83
2022/12/25 07:48:38;;;;;;;11.73;3.97;;;7.30;99.90;;;;;;5087836;28;20228;-83
2022/12/25 07:51:07;;;;;;;11.87;4.23;;;7.30;99.90;;;;;;5093855;28;20194;-83
2022/12/25 07:53:36;;;;;;;9.03;3.60;;;7.20;99.90;;;;;;5085619;28;20646;-84
2022/12/25 07:56:05;;;;;;;13.67;5.80;;;7.10;99.90;;;;;;5091457;28;20205;-83
2022/12/25 07:58:32;;;;;;;19.73;6.60;;;7.10;99.90;;;;;;5093494;28;20316;-84
2022/12/25 08:01:03;;;;;;;16.27;5.77;;;7.20;99.90;;;;;;5097834;28;20202;-84
2022/12/25 08:03:29;;;;;;;17.37;6.63;;;7.20;99.90;;;;;;5082784;28;20208;-84
2022/12/25 08:06:01;;;;;;;17.60;6.50;;;7.20;99.90;;;;;;5088217;28;20222;-84
2022/12/25 08:08:27;;;;;;;12.70;5.77;;;7.30;99.90;;;;;;5075819;28;20233;-84
2022/12/25 08:10:54;;;;;;;13.00;5.17;;;7.20;99.90;;;;;;5091820;28;20280;-84
2022/12/25 08:13:21;;;;;;;18.97;5.23;;;7.10;99.90;;;;;;5090584;28;20209;-84
2022/12/25 08:15:48;;;;;;;9.07;4.00;;;7.00;99.90;;;;;;5088119;28;20197;-84
2022/12/25 08:18:15;;;;;;;12.03;4.20;;;7.00;99.90;;;;;;5086808;28;20642;-84
2022/12/25 08:20:42;;;;;;;13.07;4.07;;;7.20;99.90;;;;;;5091654;28;20202;-83
2022/12/25 08:23:10;;;;;;;9.50;4.27;;;7.20;99.90;;;;;;5088556;28;20208;-83
2022/12/25 08:25:37;;;;;;;9.53;3.80;;;7.10;99.90;;;;;;5088086;28;20229;-84
2022/12/25 08:28:04;;;;;;;10.10;4.50;;;7.10;99.90;;;;;;5095046;28;20221;-83
2022/12/25 08:30:31;;;;;;;12.57;4.13;;;7.20;99.90;;;;;;5088313;28;20209;-83
2022/12/25 08:32:58;;;;;;;13.43;4.17;;;7.40;99.90;;;;;;5092336;28;20205;-84
2022/12/25 08:35:25;;;;;;;9.67;4.00;;;7.80;99.90;;;;;;5089247;28;20202;-84
2022/12/25 08:37:52;;;;;;;12.77;4.53;;;7.90;99.90;;;;;;5097907;28;20222;-84
2022/12/25 08:40:21;;;;;;;14.70;5.00;;;8.20;99.90;;;;;;5093317;28;20205;-83
2022/12/25 08:42:47;;;;;;;9.40;4.87;;;8.60;99.90;;;;;;5093317;28;20840;-83
2022/12/25 08:45:14;;;;;;;13.33;5.03;;;8.60;99.90;;;;;;5093984;28;20697;-83
2022/12/25 08:47:41;;;;;;;13.83;5.07;;;8.70;99.90;;;;;;5094813;28;20221;-83
2022/12/25 08:50:09;;;;;;;11.57;4.73;;;8.70;99.90;;;;;;5090430;28;20213;-84
2022/12/25 08:52:35;;;;;;;11.80;5.27;;;8.70;99.90;;;;;;5096994;28;20567;-84
2022/12/25 08:55:02;;;;;;;13.00;4.57;;;8.70;99.90;;;;;;5093723;28;20211;-84
2022/12/25 08:57:30;;;;;;;12.27;4.87;;;9.00;99.90;;;;;;5096746;28;20688;-84
2022/12/25 08:59:57;;;;;;;15.07;5.53;;;8.90;99.90;;;;;;5088876;28;20197;-83
2022/12/25 09:02:24;;;;;;;16.77;7.33;;;8.90;99.90;;;;;;5094687;28;20649;-83
2022/12/25 09:04:51;;;;;;;13.67;5.87;;;8.80;99.90;;;;;;5079464;28;20304;-83
2022/12/25 09:07:18;;;;;;;14.53;5.93;;;8.80;99.90;;;;;;5094888;28;20223;-83
2022/12/25 09:09:45;;;;;;;10.97;7.00;;;8.80;99.90;;;;;;5084859;28;20198;-84
2022/12/25 09:12:11;;;;;;;15.20;7.33;;;8.80;99.90;;;;;;5093879;28;20206;-84
2022/12/25 09:14:40;;;;;;;14.20;6.93;;;9.10;99.90;;;;;;5089016;28;20204;-84
2022/12/25 09:17:07;;;;;;;15.43;6.20;;;9.00;99.90;;;;;;5087876;28;20198;-84
2022/12/25 09:19:33;;;;;;;13.63;5.60;;;9.10;99.90;;;;;;5092334;28;20201;-85
2022/12/25 09:22:00;;;;;;;14.97;6.23;;;9.10;99.90;;;;;;5092477;28;20205;-85
2022/12/25 09:24:27;;;;;;;15.40;4.93;;;9.10;99.90;;;;;;5093998;28;20213;-84
2022/12/25 09:26:54;;;;;;;10.57;5.07;;;9.10;99.90;;;;;;5080313;28;20804;-84
2022/12/25 09:29:21;;;;;;;13.03;5.00;;;9.10;99.90;;;;;;5087513;28;20198;-84
2022/12/25 09:31:49;;;;;;;14.43;5.63;;;9.30;99.90;;;;;;5094587;28;20208;-84
2022/12/25 09:34:16;;;;;;;13.70;5.53;;;9.20;99.90;;;;;;5097050;28;20543;-84
2022/12/25 09:36:42;;;;;;;15.70;5.63;;;9.30;99.90;;;;;;5091858;28;20835;-84
2022/12/25 09:39:09;;;;;;;14.67;5.97;;;9.40;99.90;;;;;;5090519;28;20230;-84
2022/12/25 09:41:45;;;;;;;13.77;5.00;;;9.50;99.90;;;;;;5092776;28;20208;-84
2022/12/25 09:44:18;;;;;;;11.03;4.47;;;9.60;99.90;;;;;;5080763;28;20216;-84
2022/12/25 09:46:50;;;;;;;14.13;4.90;;;9.50;99.90;;;;;;5089607;28;20202;-84
2022/12/25 09:49:21;;;;;;;15.83;4.73;;;9.50;99.90;;;;;;5094265;28;20198;-84
2022/12/25 09:51:52;;;;;;;15.00;5.50;;;9.50;99.90;;;;;;5085870;28;20201;-84
2022/12/25 09:54:23;;;;;;;13.23;4.50;;;9.50;99.90;;;;;;5089071;28;20201;-84
2022/12/25 09:56:50;;;;;;;11.80;4.60;;;9.50;99.90;;;;;;5092103;28;20668;-84
2022/12/25 09:59:24;;;;;;;11.50;4.47;;;9.50;99.90;;;;;;5089003;28;20680;-84
2022/12/25 10:02:05;;;;;;;13.27;4.90;;;9.50;99.90;;;;;;5095047;28;20209;-84
2022/12/25 10:04:48;;;;;;;10.30;5.30;;;9.50;99.90;;;;;;5090633;28;20225;-84
2022/12/25 10:07:23;;;;;;;8.30;3.93;;;9.40;99.90;;;;;;5086964;28;20210;-84
2022/12/25 10:10:01;;;;;;;11.63;4.70;;;9.60;99.90;;;;;;5084276;28;20579;-83
2022/12/25 10:12:38;;;;;;;7.83;4.07;;;9.70;99.90;;;;;;5088294;28;20288;-83
2022/12/25 10:15:21;;;;;;;10.33;4.20;;;10.00;99.90;;;;;;5090707;28;20202;-83
2022/12/25 10:18:14;;;;;;;12.20;4.50;;;9.90;99.90;;;;;;5084759;28;20227;-84
2022/12/25 10:20:47;;;;;;;9.87;5.00;;;10.20;99.90;;;;;;5092647;28;20205;-83
2022/12/25 10:23:18;;;;;;;12.00;4.23;;;10.00;99.90;;;;;;5086892;28;20571;-83
2022/12/25 10:25:47;;;;;;;10.93;4.67;;;9.90;99.90;;;;;;5091450;28;20218;-84
2022/12/25 10:28:19;;;;;;;8.73;4.60;;;9.90;99.90;;;;;;5088459;28;20233;-83
2022/12/25 10:30:46;;;;;;;8.90;4.97;;;9.90;99.90;;;;;;5092632;28;20198;-83
2022/12/25 10:33:14;;;;;;;9.77;4.63;;;9.90;99.90;;;;;;5094236;28;20206;-84
2022/12/25 10:35:42;;;;;;;10.23;4.37;;;9.90;99.90;;;;;;5091343;28;20205;-83
2022/12/25 10:38:13;;;;;;;9.60;4.93;;;9.90;99.90;;;;;;5087592;28;20278;-83
2022/12/25 10:40:55;;;;;;;9.97;4.83;;;9.90;99.90;;;;;;5093780;28;20292;-84
2022/12/25 10:43:26;;;;;;;9.43;4.10;;;9.80;99.90;;;;;;5095208;28;20216;-84
2022/12/25 10:45:53;;;;;;;9.73;4.43;;;9.80;99.90;;;;;;5087431;28;20222;-84
2022/12/25 10:48:25;;;;;;;11.77;4.13;;;9.90;99.90;;;;;;5083882;28;20309;-84
2022/12/25 10:50:52;;;;;;;11.67;4.60;;;10.00;99.90;;;;;;5084506;28;20198;-84
2022/12/25 10:53:21;;;;;;;9.33;3.90;;;9.90;99.90;;;;;;5089078;28;20210;-84
2022/12/25 10:56:07;;;;;;;11.53;4.20;;;9.80;99.90;;;;;;5085449;28;20194;-83
2022/12/25 10:58:34;;;;;;;11.50;4.33;;;9.90;99.90;;;;;;5089507;28;20229;-83
2022/12/25 11:01:03;;;;;;;10.87;3.87;;;10.00;99.90;;;;;;5096940;28;20608;-84
2022/12/25 11:03:33;;;;;;;10.30;4.77;;;9.90;99.90;;;;;;5086388;28;20213;-83
2022/12/25 11:06:01;;;;;;;10.77;4.03;;;10.00;99.90;;;;;;5091715;28;20572;-83
2022/12/25 11:08:30;;;;;;;10.20;4.67;;;10.00;99.90;;;;;;5087435;28;20226;-84
2022/12/25 11:11:04;;;;;;;10.90;4.03;;;10.10;99.90;;;;;;5088733;28;20205;-83
2022/12/25 11:13:33;;;;;;;10.63;4.63;;;10.00;99.90;;;;;;5088542;28;20224;-83
2022/12/25 11:16:09;;;;;;;9.20;4.27;;;10.10;99.90;;;;;;5086983;28;20583;-83
2022/12/25 11:18:48;;;;;;;9.03;4.00;;;9.90;99.90;;;;;;5088787;28;20477;-83
2022/12/25 11:21:17;;;;;;;8.93;3.87;;;9.80;99.90;;;;;;5091808;28;20588;-83
2022/12/25 11:23:46;;;;;;;9.63;4.17;;;10.00;99.90;;;;;;5086006;28;20201;-83
2022/12/25 11:26:13;;;;;;;8.37;3.60;;;10.00;99.90;;;;;;5094162;28;20225;-83
2022/12/25 11:28:42;;;;;;;7.53;3.60;;;10.10;99.90;;;;;;5086524;28;20217;-83
2022/12/25 11:31:13;;;;;;;8.03;3.50;;;10.10;99.90;;;;;;5088408;28;20206;-83
2022/12/25 11:33:50;;;;;;;4.63;3.07;;;10.10;99.90;;;;;;5088222;28;20209;-83
2022/12/25 11:36:23;;;;;;;5.57;3.23;;;10.20;99.90;;;;;;5089529;28;20204;-83
2022/12/25 11:38:51;;;;;;;9.13;3.57;;;10.20;99.90;;;;;;5083620;28;20697;-84
2022/12/25 11:41:22;;;;;;;7.90;3.37;;;10.30;99.90;;;;;;5092277;28;20193;-84
2022/12/25 11:43:53;;;;;;;10.93;3.77;;;10.30;99.90;;;;;;5087044;28;20237;-83
2022/12/25 11:46:24;;;;;;;11.53;4.27;;;10.30;99.90;;;;;;5084346;28;20217;-84
2022/12/25 11:48:57;;;;;;;6.40;3.60;;;10.40;99.90;;;;;;5090905;28;20463;-83
2022/12/25 11:51:26;;;;;;;7.80;4.00;;;10.30;99.90;;;;;;5090366;28;20588;-83
2022/12/25 11:53:55;;;;;;;8.67;3.27;;;10.20;99.90;;;;;;5091414;28;20216;-83
2022/12/25 11:56:25;;;;;;;9.77;4.13;;;10.30;99.90;;;;;;5093081;28;20212;-83
2022/12/25 11:58:54;;;;;;;8.57;3.90;;;10.20;99.90;;;;;;5086027;28;20259;-83
2022/12/25 12:01:30;;;;;;;11.40;4.00;;;10.20;99.90;;;;;;5098207;28;20212;-83
2022/12/25 12:04:01;;;;;;;10.43;3.73;;;10.30;99.90;;;;;;5097304;28;20848;-83
2022/12/25 12:06:33;;;;;;;8.17;3.70;;;10.30;99.90;;;;;;5098015;28;20225;-83
2022/12/25 12:09:14;;;;;;;9.63;4.37;;;10.30;99.90;;;;;;5090615;28;20230;-84
2022/12/25 12:11:49;;;;;;;8.07;4.10;;;10.30;99.90;;;;;;5099827;28;20208;-84
2022/12/25 12:14:30;;;;;;;9.00;4.10;;;10.30;99.90;;;;;;5094598;28;20200;-84
2022/12/25 12:16:56;;;;;;;8.03;4.30;;;10.30;99.90;;;;;;5099718;28;20201;-84
2022/12/25 12:19:28;;;;;;;10.03;4.33;;;10.10;99.90;;;;;;5085364;28;20202;-84
2022/12/25 12:21:58;;;;;;;9.70;4.50;;;10.10;99.90;;;;;;5088176;28;20224;-84
2022/12/25 12:24:29;;;;;;;9.23;4.43;;;10.10;99.90;;;;;;5096094;28;20212;-84
2022/12/25 12:27:04;;;;;;;10.97;4.50;;;10.20;99.90;;;;;;5091960;28;20221;-84
2022/12/25 12:29:37;;;;;;;9.97;4.30;;;10.20;99.90;;;;;;5093127;28;20201;-84
2022/12/25 12:32:06;;;;;;;8.60;4.00;;;10.10;99.90;;;;;;5092463;28;20199;-84
2022/12/25 12:34:41;;;;;;;7.53;4.00;;;10.10;99.90;;;;;;5099362;28;20206;-84
2022/12/25 12:37:17;;;;;;;10.23;3.97;;;10.10;99.90;;;;;;5096012;28;20209;-84
2022/12/25 12:39:44;;;;;;;7.17;4.07;;;10.00;99.90;;;;;;5091701;28;20198;-84
2022/12/25 12:42:16;;;;;;;9.97;4.63;;;10.10;99.90;;;;;;5094238;28;20200;-84
2022/12/25 12:44:44;;;;;;;7.90;4.30;;;10.10;99.90;;;;;;5093776;28;20208;-84
2022/12/25 12:47:29;;;;;;;10.43;4.30;;;9.90;99.90;;;;;;5096088;28;20253;-84
2022/12/25 12:50:00;;;;;;;9.13;4.40;;;10.00;99.90;;;;;;5090401;28;20206;-84
2022/12/25 12:52:32;;;;;;;11.00;4.47;;;9.90;99.90;;;;;;5096333;28;20209;-84
2022/12/25 12:55:02;;;;;;;10.63;5.00;;;9.90;99.90;;;;;;5094960;28;20209;-84
2022/12/25 12:57:31;;;;;;;9.73;4.27;;;9.90;99.90;;;;;;5094696;28;20225;-84
2022/12/25 13:00:00;;;;;;;8.93;5.03;;;9.90;99.90;;;;;;5098082;28;20224;-84
2022/12/25 13:02:55;;;;;;;12.97;5.53;;;9.90;99.90;;;;;;5094471;28;20240;-83
2022/12/25 13:05:34;;;;;;;12.27;4.57;;;9.80;99.90;;;;;;5095689;28;21741;-83
2022/12/25 13:08:11;;;;;;;14.60;6.53;;;9.80;99.90;;;;;;5095289;28;20249;-84
2022/12/25 13:10:43;;;;;;;9.90;4.03;;;9.80;99.90;;;;;;5100267;28;20201;-83
2022/12/25 13:13:17;;;;;;;10.03;4.33;;;9.60;99.90;;;;;;5092030;28;20194;-84
2022/12/25 13:15:47;;;;;;;11.73;5.07;;;9.70;99.90;;;;;;5084035;28;20205;-84
2022/12/25 13:18:14;;;;;;;11.40;5.37;;;9.60;99.90;;;;;;5096857;28;20600;-84
2022/12/25 13:20:53;;;;;;;8.33;4.63;;;9.60;99.90;;;;;;5096672;28;20205;-84
2022/12/25 13:23:25;;;;;;;8.27;4.40;;;9.60;99.90;;;;;;5095569;28;20209;-84
2022/12/25 13:25:54;;;;;;;9.97;4.63;;;9.60;99.90;;;;;;5090936;28;20316;-84
2022/12/25 13:28:26;;;;;;;8.33;4.37;;;9.60;99.90;;;;;;5096118;28;20225;-84
2022/12/25 13:30:52;;;;;;;9.90;4.50;;;9.50;99.90;;;;;;5095146;28;20229;-84
2022/12/25 13:33:20;;;;;;;9.50;5.20;;;9.60;99.90;;;;;;5095362;28;20717;-84
2022/12/25 13:35:48;;;;;;;10.00;4.80;;;9.50;99.90;;;;;;5090441;28;20284;-83
2022/12/25 13:38:17;;;;;;;13.10;5.23;;;9.50;99.90;;;;;;5091880;28;20228;-84
2022/12/25 13:42:04;;;;;;;7.37;4.70;;;9.40;99.90;;;;;;5092814;28;20201;-84
2022/12/25 13:43:38;;;;;;;9.57;4.70;;;9.40;99.90;;;;;;5091855;28;20201;-84
2022/12/25 13:46:05;;;;;;;8.27;4.70;;;9.40;99.90;;;;;;5091298;28;20681;-84
2022/12/25 13:48:33;;;;;;;9.60;4.90;;;9.30;99.90;;;;;;5095099;28;20693;-84
2022/12/25 13:51:02;;;;;;;11.57;5.43;;;9.20;99.90;;;;;;5099357;28;20575;-83
2022/12/25 13:53:29;;;;;;;15.33;6.10;;;9.40;99.90;;;;;;5091904;28;20212;-83
2022/12/25 13:55:58;;;;;;;11.70;6.37;;;9.30;99.90;;;;;;5090203;28;20194;-84
2022/12/25 13:58:27;;;;;;;9.47;5.10;;;9.30;99.90;;;;;;5087865;28;20229;-84
2022/12/25 14:00:56;;;;;;;11.03;5.23;;;9.10;99.90;;;;;;5092371;28;20204;-84
2022/12/25 14:03:28;;;;;;;15.87;5.27;;;9.10;99.90;;;;;;5093343;28;20658;-84
2022/12/25 14:05:57;;;;;;;9.67;4.77;;;9.20;99.90;;;;;;5090585;28;20252;-83
2022/12/25 14:08:28;;;;;;;9.60;5.00;;;9.10;99.90;;;;;;5092495;28;20213;-83
2022/12/25 14:10:55;;;;;;;10.70;5.17;;;9.20;99.90;;;;;;5082675;28;20197;-83
2022/12/25 14:13:26;;;;;;;15.93;5.77;;;9.10;99.90;;;;;;5085285;28;20212;-83
2022/12/25 14:15:55;;;;;;;12.33;5.47;;;9.10;99.90;;;;;;5092755;28;20208;-83
2022/12/25 14:18:24;;;;;;;7.70;5.10;;;9.10;99.90;;;;;;5088376;28;21645;-83
2022/12/25 14:20:58;;;;;;;5.97;4.63;;;9.20;99.90;;;;;;5093045;28;20205;-83
2022/12/25 14:23:30;;;;;;;10.43;5.43;;;9.20;99.90;;;;;;5093726;28;20204;-83
2022/12/25 14:25:56;;;;;;;8.57;5.50;;;9.20;99.90;;;;;;5093159;28;20715;-83
2022/12/25 14:28:30;;;;;;;9.97;5.33;;;9.10;99.90;;;;;;5097678;28;20228;-83
2022/12/25 14:30:58;;;;;;;8.50;5.77;;;9.10;99.90;;;;;;5089141;28;20220;-83
2022/12/25 14:33:27;;;;;;;10.43;5.77;;;9.10;99.90;;;;;;5092053;28;20216;-83
2022/12/25 14:35:54;;;;;;;11.60;5.63;;;9.10;99.90;;;;;;5087969;28;20660;-83
2022/12/25 14:38:24;;;;;;;10.57;6.00;;;9.10;99.90;;;;;;5091393;28;20232;-84
2022/12/25 14:41:04;;;;;;;9.03;5.63;;;9.00;99.90;;;;;;5093775;28;20204;-83
2022/12/25 14:43:33;;;;;;;10.53;5.93;;;9.20;99.90;;;;;;5090763;28;20292;-83